Time;durP1;ratioP1;P1;durP2;ratioP2;P2;SDS_P1;SDS_P2;PMS_P1;PMS_P2;Temp;Humidity;BMP_temperature;BMP_pressure;BME280_temperature;BME280_humidity;BME280_pressure;Samples;Min_cycle;Max_cycle;Signal;HPM_P1;HPM_P2
2021/06/02 00:02:08;;;;;;;12.13;5.03;;;20.70;99.90;;;;;;5079433;28;20020;-88
2021/06/02 00:04:41;;;;;;;12.15;5.18;;;20.60;99.90;;;;;;5071689;28;20070;-88
2021/06/02 00:07:09;;;;;;;12.48;5.20;;;20.70;99.90;;;;;;5060554;28;20048;-88
2021/06/02 00:09:37;;;;;;;9.90;5.13;;;20.50;99.90;;;;;;5071990;28;20043;-88
2021/06/02 00:12:09;;;;;;;11.05;5.18;;;20.50;99.90;;;;;;5079614;28;20012;-88
2021/06/02 00:14:35;;;;;;;9.25;5.07;;;20.50;99.90;;;;;;5072644;28;20027;-87
2021/06/02 00:17:01;;;;;;;10.73;5.13;;;20.50;99.90;;;;;;5071451;28;20090;-88
2021/06/02 00:19:27;;;;;;;8.18;5.03;;;20.40;99.90;;;;;;5072689;28;20028;-88
2021/06/02 00:21:55;;;;;;;10.32;5.03;;;20.50;99.90;;;;;;5073808;28;20021;-88
2021/06/02 00:24:22;;;;;;;11.63;4.97;;;20.50;99.90;;;;;;5073119;28;20024;-88
2021/06/02 00:26:54;;;;;;;13.10;5.72;;;20.50;99.90;;;;;;5081312;28;20024;-88
2021/06/02 00:29:21;;;;;;;8.93;5.05;;;20.50;99.90;;;;;;5071806;28;20587;-88
2021/06/02 00:31:48;;;;;;;12.55;5.47;;;20.50;99.90;;;;;;5079674;28;20021;-88
2021/06/02 00:34:14;;;;;;;10.77;6.03;;;20.50;99.90;;;;;;5069822;28;20032;-88
2021/06/02 00:36:44;;;;;;;9.45;4.95;;;20.50;99.90;;;;;;5072183;28;20021;-87
2021/06/02 00:39:12;;;;;;;11.15;6.13;;;20.50;99.90;;;;;;5069536;28;20301;-88
2021/06/02 00:41:39;;;;;;;9.43;5.40;;;20.60;99.90;;;;;;5073999;28;20012;-88
2021/06/02 00:44:07;;;;;;;10.00;5.38;;;20.50;99.90;;;;;;5071606;28;20120;-88
2021/06/02 00:46:36;;;;;;;11.57;5.25;;;20.50;99.90;;;;;;5075387;28;20602;-88
2021/06/02 00:49:03;;;;;;;12.07;5.32;;;20.40;99.90;;;;;;5072118;28;20040;-88
2021/06/02 00:51:29;;;;;;;12.23;5.10;;;20.40;99.90;;;;;;5077298;28;20527;-88
2021/06/02 00:53:55;;;;;;;10.70;4.63;;;20.40;99.90;;;;;;5070481;28;20021;-88
2021/06/02 00:56:36;;;;;;;12.88;4.57;;;20.30;99.90;;;;;;5080781;28;20074;-88
2021/06/02 00:59:02;;;;;;;9.38;4.35;;;20.30;99.90;;;;;;5073773;28;20202;-89
2021/06/02 01:01:36;;;;;;;11.65;4.43;;;20.10;99.90;;;;;;5075697;28;20020;-88
2021/06/02 01:04:05;;;;;;;12.25;4.15;;;20.00;99.90;;;;;;5070881;28;20036;-88
2021/06/02 01:06:35;;;;;;;15.82;4.47;;;19.90;99.90;;;;;;5075027;28;20024;-88
2021/06/02 01:09:04;;;;;;;13.18;4.57;;;19.80;99.90;;;;;;5070656;28;20104;-88
2021/06/02 01:11:30;;;;;;;14.57;4.88;;;19.80;99.90;;;;;;5076059;28;20021;-88
2021/06/02 01:13:58;;;;;;;14.68;4.35;;;19.70;99.90;;;;;;5070411;28;20028;-88
2021/06/02 01:16:33;;;;;;;13.82;4.15;;;19.60;99.90;;;;;;5076900;28;20044;-87
2021/06/02 01:19:00;;;;;;;13.18;4.85;;;19.60;99.90;;;;;;5083237;28;20040;-88
2021/06/02 01:21:28;;;;;;;12.85;4.80;;;19.50;99.90;;;;;;5093059;28;20030;-88
2021/06/02 01:24:03;;;;;;;16.00;4.53;;;19.50;99.90;;;;;;5083182;28;20074;-88
2021/06/02 01:26:30;;;;;;;12.35;4.32;;;19.50;99.90;;;;;;5081903;28;20013;-89
2021/06/02 01:28:56;;;;;;;15.90;4.70;;;19.50;99.90;;;;;;5084580;28;20017;-88
2021/06/02 01:31:48;;;;;;;17.63;4.88;;;19.50;99.90;;;;;;5085200;28;20019;-87
2021/06/02 01:34:22;;;;;;;14.45;4.63;;;19.40;99.90;;;;;;5022469;28;20051;-88
2021/06/02 01:37:10;;;;;;;16.85;5.43;;;19.30;99.90;;;;;;5072154;28;20017;-89
2021/06/02 01:40:02;;;;;;;18.67;5.10;;;19.20;99.90;;;;;;5082016;28;20040;-88
2021/06/02 01:42:56;;;;;;;13.38;4.85;;;19.20;99.90;;;;;;5076027;28;20111;-88
2021/06/02 01:45:36;;;;;;;12.93;5.22;;;19.20;99.90;;;;;;5074589;28;20020;-88
2021/06/02 01:48:26;;;;;;;17.13;5.03;;;19.10;99.90;;;;;;5068089;28;20029;-88
2021/06/02 01:51:34;;;;;;;16.85;5.20;;;18.90;99.90;;;;;;5074604;28;20050;-88
2021/06/02 01:54:18;;;;;;;15.68;4.85;;;18.90;99.90;;;;;;5070272;28;20264;-88
2021/06/02 01:57:12;;;;;;;18.70;5.72;;;18.90;99.90;;;;;;5067490;28;20040;-89
2021/06/02 02:00:02;;;;;;;18.10;5.95;;;18.90;99.90;;;;;;5074013;28;20035;-88
2021/06/02 02:02:55;;;;;;;19.20;7.15;;;18.80;99.90;;;;;;5072617;28;20469;-88
2021/06/02 02:05:53;;;;;;;15.88;6.90;;;18.80;99.90;;;;;;5078257;28;20396;-89
2021/06/02 02:08:46;;;;;;;14.63;6.60;;;18.70;99.90;;;;;;5047912;28;20051;-88
2021/06/02 02:11:37;;;;;;;14.85;6.70;;;18.70;99.90;;;;;;5076457;28;20040;-88
2021/06/02 02:14:17;;;;;;;17.25;6.95;;;18.60;99.90;;;;;;5073087;28;20493;-88
2021/06/02 02:17:04;;;;;;;15.70;7.53;;;18.60;99.90;;;;;;5075049;28;20579;-88
2021/06/02 02:19:30;;;;;;;18.80;6.97;;;18.60;99.90;;;;;;5075826;28;20085;-88
2021/06/02 02:22:11;;;;;;;14.70;7.03;;;18.70;99.90;;;;;;5084506;28;20032;-88
2021/06/02 02:24:55;;;;;;;15.18;7.13;;;18.80;99.90;;;;;;5075056;28;20039;-88
2021/06/02 02:27:31;;;;;;;14.18;6.50;;;18.80;99.90;;;;;;5078460;28;20071;-88
2021/06/02 02:30:08;;;;;;;19.48;7.57;;;18.90;99.90;;;;;;5065378;28;20077;-88
2021/06/02 02:32:42;;;;;;;17.23;7.13;;;18.80;99.90;;;;;;5078751;28;20435;-88
2021/06/02 02:35:47;;;;;;;16.25;7.45;;;18.70;99.90;;;;;;5080659;28;20031;-88
2021/06/02 02:38:45;;;;;;;19.45;7.97;;;18.60;99.90;;;;;;5030516;28;20408;-88
2021/06/02 02:41:45;;;;;;;16.38;8.23;;;18.60;99.90;;;;;;5024352;28;20493;-88
2021/06/02 02:44:28;;;;;;;18.33;8.60;;;18.50;99.90;;;;;;5073363;28;20074;-88
2021/06/02 02:47:19;;;;;;;23.17;9.00;;;18.50;99.90;;;;;;5078673;28;20384;-88
2021/06/02 02:50:08;;;;;;;22.35;9.60;;;18.50;99.90;;;;;;5075499;28;20035;-89
2021/06/02 02:53:02;;;;;;;20.80;9.02;;;18.40;99.90;;;;;;5069568;28;20025;-89
2021/06/02 02:55:33;;;;;;;20.50;8.77;;;18.40;99.90;;;;;;5076234;28;20024;-88
2021/06/02 02:58:40;;;;;;;21.25;8.95;;;18.40;99.90;;;;;;5076021;28;20033;-88
2021/06/02 03:01:22;;;;;;;18.42;9.02;;;18.30;99.90;;;;;;5078932;28;20028;-88
2021/06/02 03:04:24;;;;;;;20.38;9.00;;;18.30;99.90;;;;;;5072244;28;20040;-88
2021/06/02 03:06:57;;;;;;;19.10;8.80;;;18.30;99.90;;;;;;5069020;28;20028;-88
2021/06/02 03:09:48;;;;;;;19.15;8.35;;;18.20;99.90;;;;;;5072440;28;20622;-88
2021/06/02 03:12:42;;;;;;;23.63;8.30;;;18.30;99.90;;;;;;5069876;28;20025;-88
2021/06/02 03:15:33;;;;;;;15.70;8.57;;;18.30;99.90;;;;;;5076535;28;20028;-88
2021/06/02 03:18:21;;;;;;;14.70;7.60;;;18.10;99.90;;;;;;5080615;28;20045;-88
2021/06/02 03:20:54;;;;;;;14.98;8.13;;;18.20;99.90;;;;;;5062107;28;20124;-89
2021/06/02 03:23:39;;;;;;;20.85;8.15;;;18.20;99.90;;;;;;5060468;28;20020;-88
2021/06/02 03:26:13;;;;;;;15.05;7.93;;;18.10;99.90;;;;;;5079719;28;20036;-88
2021/06/02 03:29:03;;;;;;;16.25;8.15;;;18.00;99.90;;;;;;5072188;28;20407;-89
2021/06/02 03:31:37;;;;;;;17.48;8.32;;;18.00;99.90;;;;;;5081030;28;20025;-88
2021/06/02 03:34:15;;;;;;;22.55;9.18;;;18.00;99.90;;;;;;5072874;28;20024;-89
2021/06/02 03:37:04;;;;;;;19.90;9.32;;;18.10;99.90;;;;;;5076177;28;20020;-88
2021/06/02 03:39:47;;;;;;;25.88;9.50;;;18.10;99.90;;;;;;5072551;28;20033;-88
2021/06/02 03:42:39;;;;;;;22.33;9.55;;;18.10;99.90;;;;;;5071419;28;20021;-88
2021/06/02 03:45:22;;;;;;;23.20;9.35;;;18.00;99.90;;;;;;5062281;28;20074;-88
2021/06/02 03:47:59;;;;;;;21.80;9.38;;;18.00;99.90;;;;;;5073385;28;20029;-89
2021/06/02 03:50:28;;;;;;;23.77;9.88;;;18.00;99.90;;;;;;5075187;28;20044;-88
2021/06/02 03:53:09;;;;;;;21.13;10.32;;;18.00;99.90;;;;;;5071902;28;20032;-87
2021/06/02 03:55:36;;;;;;;21.17;11.52;;;18.00;99.90;;;;;;5072683;28;20485;-88
2021/06/02 03:58:33;;;;;;;23.83;11.15;;;18.00;99.90;;;;;;5072302;28;20028;-88
2021/06/02 04:01:29;;;;;;;21.23;12.25;;;18.10;99.90;;;;;;5071589;28;20037;-90
2021/06/02 04:04:29;;;;;;;25.00;13.60;;;18.10;99.90;;;;;;5057172;28;20095;-88
2021/06/02 04:07:00;;;;;;;22.48;13.38;;;18.00;99.90;;;;;;5072371;28;20062;-88
2021/06/02 04:09:29;;;;;;;26.05;15.48;;;17.90;99.90;;;;;;5061863;28;20484;-88
2021/06/02 04:12:19;;;;;;;25.20;14.20;;;17.80;99.90;;;;;;5074491;28;20035;-89
2021/06/02 04:14:58;;;;;;;26.88;15.13;;;17.90;99.90;;;;;;5074550;28;20042;-88
2021/06/02 04:17:26;;;;;;;28.63;16.15;;;17.90;99.90;;;;;;5066929;28;20083;-88
2021/06/02 04:19:52;;;;;;;28.60;15.90;;;17.90;99.90;;;;;;5075702;28;20020;-88
2021/06/02 04:22:20;;;;;;;24.88;14.95;;;17.90;99.90;;;;;;5073722;28;20016;-88
2021/06/02 04:24:48;;;;;;;33.67;15.02;;;18.00;99.90;;;;;;5075436;28;20032;-87
2021/06/02 04:27:17;;;;;;;28.73;15.07;;;18.10;99.90;;;;;;5070914;28;20070;-88
2021/06/02 04:29:51;;;;;;;27.00;14.48;;;17.90;99.90;;;;;;5074615;28;20058;-89
2021/06/02 04:32:18;;;;;;;23.52;14.18;;;17.90;99.90;;;;;;5067412;28;20020;-88
2021/06/02 04:34:44;;;;;;;26.77;14.00;;;18.00;99.90;;;;;;5074017;28;20035;-88
2021/06/02 04:37:11;;;;;;;18.00;13.25;;;18.00;99.90;;;;;;5078055;28;20387;-89
2021/06/02 04:39:42;;;;;;;20.58;12.88;;;18.10;99.90;;;;;;5074650;28;20024;-88
2021/06/02 04:42:11;;;;;;;17.27;12.45;;;18.00;99.90;;;;;;5071969;28;20017;-88
2021/06/02 04:44:38;;;;;;;20.05;12.60;;;18.10;99.90;;;;;;5074858;28;20515;-88
2021/06/02 04:47:05;;;;;;;23.35;13.57;;;18.10;99.90;;;;;;5072455;28;20400;-88
2021/06/02 04:50:09;;;;;;;17.70;11.60;;;18.20;99.90;;;;;;5072812;28;20503;-88
2021/06/02 04:53:26;;;;;;;24.48;12.40;;;18.10;99.90;;;;;;5064318;28;20117;-89
2021/06/02 04:56:29;;;;;;;18.58;11.90;;;18.10;99.90;;;;;;5078083;28;20050;-88
2021/06/02 04:59:32;;;;;;;17.17;11.60;;;18.10;99.90;;;;;;5063466;28;20033;-89
2021/06/02 05:02:29;;;;;;;18.20;10.70;;;18.20;99.90;;;;;;5074742;28;20043;-88
2021/06/02 05:05:22;;;;;;;16.38;10.30;;;18.20;99.90;;;;;;5071584;28;20175;-89
2021/06/02 05:08:25;;;;;;;18.27;10.02;;;18.30;99.90;;;;;;5072994;28;20024;-88
2021/06/02 05:11:09;;;;;;;18.40;9.90;;;18.40;99.90;;;;;;5072219;28;20156;-88
2021/06/02 05:13:50;;;;;;;21.40;9.70;;;18.30;99.90;;;;;;5056871;28;20024;-88
2021/06/02 05:16:40;;;;;;;22.23;9.48;;;18.20;99.90;;;;;;5072500;28;20028;-90
2021/06/02 05:19:49;;;;;;;25.90;9.32;;;18.30;99.90;;;;;;5068714;28;20064;-91
2021/06/02 05:22:40;;;;;;;22.25;8.73;;;18.40;99.90;;;;;;5076238;28;20125;-89
2021/06/02 05:25:28;;;;;;;19.23;8.73;;;18.40;99.90;;;;;;5072165;28;20021;-89
2021/06/02 05:28:21;;;;;;;23.00;9.05;;;18.50;99.90;;;;;;5072632;28;20037;-88
2021/06/02 05:31:13;;;;;;;24.65;8.60;;;18.50;99.90;;;;;;5080933;28;20039;-88
2021/06/02 05:33:56;;;;;;;17.63;8.00;;;18.50;99.90;;;;;;5070288;28;20060;-85
2021/06/02 05:36:39;;;;;;;23.98;8.50;;;18.50;99.90;;;;;;5079317;28;20039;-88
2021/06/02 05:39:23;;;;;;;24.58;8.50;;;18.40;99.90;;;;;;5078685;28;20032;-86
2021/06/02 05:42:14;;;;;;;26.98;9.40;;;18.40;99.90;;;;;;5076331;28;20070;-90
2021/06/02 05:45:07;;;;;;;26.27;8.52;;;18.50;99.90;;;;;;5076611;28;20040;-89
2021/06/02 05:47:38;;;;;;;29.50;8.65;;;18.60;99.90;;;;;;5073768;28;20037;-89
2021/06/02 05:50:47;;;;;;;21.98;7.72;;;18.40;99.90;;;;;;5075002;28;20016;-89
2021/06/02 05:53:34;;;;;;;20.50;8.75;;;18.50;99.90;;;;;;5073175;28;20013;-89
2021/06/02 05:56:06;;;;;;;27.52;8.75;;;18.40;99.90;;;;;;5080114;28;20025;-90
2021/06/02 05:59:06;;;;;;;22.35;8.90;;;18.50;99.90;;;;;;5072399;28;20523;-90
2021/06/02 06:01:51;;;;;;;25.52;9.35;;;18.40;99.90;;;;;;5072661;28;20024;-90
2021/06/02 06:04:42;;;;;;;29.20;9.23;;;18.50;99.90;;;;;;5052088;28;20122;-89
2021/06/02 06:07:31;;;;;;;17.60;8.35;;;18.40;99.90;;;;;;5072746;28;20063;-89
2021/06/02 06:10:22;;;;;;;22.63;9.20;;;18.30;99.90;;;;;;5076001;28;20025;-90
2021/06/02 06:13:15;;;;;;;20.10;8.80;;;18.60;99.90;;;;;;5072497;28;20407;-90
2021/06/02 06:16:05;;;;;;;21.48;8.75;;;18.60;99.90;;;;;;5076716;28;20048;-91
2021/06/02 06:18:52;;;;;;;20.17;8.32;;;18.70;99.90;;;;;;5072818;28;20052;-91
2021/06/02 06:21:36;;;;;;;17.13;8.80;;;18.80;99.90;;;;;;5076247;28;20037;-89
2021/06/02 06:24:22;;;;;;;20.55;8.80;;;18.80;99.90;;;;;;5074639;28;20021;-90
2021/06/02 06:27:07;;;;;;;18.85;8.77;;;18.80;99.90;;;;;;5084346;28;20106;-90
2021/06/02 06:30:06;;;;;;;21.60;9.10;;;18.80;99.90;;;;;;5074368;28;20333;-79
2021/06/02 06:32:34;;;;;;;15.52;8.70;;;18.70;99.90;;;;;;5075202;28;20047;-78
2021/06/02 06:35:02;;;;;;;20.92;9.20;;;18.70;99.90;;;;;;5073622;28;20256;-77
2021/06/02 06:37:32;;;;;;;21.00;9.68;;;18.80;99.90;;;;;;5072349;28;20024;-78
2021/06/02 06:40:03;;;;;;;16.90;8.00;;;18.90;99.90;;;;;;5074295;28;20070;-77
2021/06/02 06:42:38;;;;;;;16.02;8.95;;;18.90;99.90;;;;;;5072406;28;20073;-77
2021/06/02 06:45:16;;;;;;;24.05;8.40;;;18.90;99.90;;;;;;5074119;28;20032;-77
2021/06/02 06:47:43;;;;;;;18.15;7.70;;;19.00;99.90;;;;;;5073747;28;20565;-77
2021/06/02 06:50:11;;;;;;;19.17;8.55;;;19.10;99.90;;;;;;5076110;28;20126;-76
2021/06/02 06:52:38;;;;;;;18.77;8.43;;;19.20;99.90;;;;;;5074134;28;20370;-77
2021/06/02 06:55:07;;;;;;;19.00;8.63;;;19.30;99.90;;;;;;5076622;28;20515;-76
2021/06/02 06:57:34;;;;;;;20.83;8.15;;;19.40;99.90;;;;;;5075231;28;20036;-76
2021/06/02 07:00:00;;;;;;;19.83;8.35;;;19.40;99.90;;;;;;5076717;28;20024;-77
2021/06/02 07:02:28;;;;;;;19.52;7.95;;;19.30;99.90;;;;;;5077777;28;20052;-77
2021/06/02 07:04:54;;;;;;;15.55;8.00;;;19.30;99.90;;;;;;5076310;28;20527;-76
2021/06/02 07:07:20;;;;;;;18.58;8.00;;;19.30;99.90;;;;;;5080569;28;20047;-76
2021/06/02 07:09:47;;;;;;;19.63;8.35;;;19.20;99.90;;;;;;5072193;28;20546;-77
2021/06/02 07:12:15;;;;;;;18.25;8.40;;;19.20;99.90;;;;;;5080328;28;20559;-77
2021/06/02 07:14:43;;;;;;;15.65;7.47;;;19.30;99.90;;;;;;5072590;28;20238;-76
2021/06/02 07:17:09;;;;;;;23.98;7.88;;;19.40;99.90;;;;;;5072287;28;20042;-77
2021/06/02 07:19:43;;;;;;;14.23;7.00;;;19.30;99.90;;;;;;5073614;28;20373;-76
2021/06/02 07:22:10;;;;;;;12.93;6.28;;;19.30;99.90;;;;;;5073654;28;20027;-76
2021/06/02 07:24:36;;;;;;;21.10;8.07;;;19.50;99.90;;;;;;5073998;28;20044;-76
2021/06/02 07:27:02;;;;;;;23.17;8.18;;;19.40;99.90;;;;;;5077908;28;20017;-76
2021/06/02 07:29:28;;;;;;;18.00;7.60;;;19.50;99.90;;;;;;5072852;28;20035;-76
2021/06/02 07:31:54;;;;;;;19.08;7.57;;;19.50;99.90;;;;;;5076717;28;20023;-76
2021/06/02 07:34:21;;;;;;;18.33;7.53;;;19.40;99.90;;;;;;5071425;28;20158;-76
2021/06/02 07:36:48;;;;;;;17.55;8.10;;;19.20;99.90;;;;;;5071538;28;20016;-77
2021/06/02 07:39:14;;;;;;;11.68;6.95;;;19.00;99.90;;;;;;5071636;28;20043;-77
2021/06/02 07:41:40;;;;;;;18.08;7.90;;;19.00;99.90;;;;;;5075090;28;20377;-76
2021/06/02 07:44:06;;;;;;;20.33;7.90;;;19.00;99.90;;;;;;5071682;28;20028;-77
2021/06/02 07:46:35;;;;;;;19.30;7.50;;;19.00;99.90;;;;;;5075043;28;20121;-79
2021/06/02 07:49:03;;;;;;;21.63;7.72;;;19.30;99.90;;;;;;5070949;28;20028;-76
2021/06/02 07:51:29;;;;;;;13.68;7.55;;;19.30;99.90;;;;;;5079200;28;20103;-76
2021/06/02 07:53:54;;;;;;;20.02;7.65;;;19.40;99.90;;;;;;5070308;28;20091;-76
2021/06/02 07:56:20;;;;;;;18.48;7.65;;;19.20;99.90;;;;;;5080155;28;20024;-76
2021/06/02 07:58:46;;;;;;;18.02;8.10;;;19.50;99.90;;;;;;5069545;28;20032;-77
2021/06/02 08:01:11;;;;;;;18.58;7.78;;;19.30;99.90;;;;;;5076360;28;20100;-76
2021/06/02 08:03:37;;;;;;;14.77;7.03;;;19.20;99.90;;;;;;5070401;28;20082;-76
2021/06/02 08:06:03;;;;;;;12.02;6.38;;;19.10;99.90;;;;;;5071894;28;20028;-76
2021/06/02 08:08:29;;;;;;;17.42;7.75;;;19.00;99.90;;;;;;5070002;28;20112;-76
2021/06/02 08:10:54;;;;;;;21.10;9.07;;;19.00;99.90;;;;;;5072079;28;20036;-76
2021/06/02 08:13:20;;;;;;;20.85;8.27;;;19.00;99.90;;;;;;5069106;28;20062;-76
2021/06/02 08:15:46;;;;;;;20.55;11.18;;;19.10;99.90;;;;;;5070357;28;20086;-76
2021/06/02 08:18:11;;;;;;;17.70;8.38;;;19.20;99.90;;;;;;5069579;28;20044;-76
2021/06/02 08:20:37;;;;;;;16.60;8.60;;;19.40;99.90;;;;;;5075448;28;20128;-77
2021/06/02 08:23:03;;;;;;;14.70;8.20;;;19.50;99.90;;;;;;5071948;28;20024;-76
2021/06/02 08:25:29;;;;;;;19.55;8.95;;;19.60;99.90;;;;;;5077080;28;20036;-76
2021/06/02 08:27:55;;;;;;;14.95;7.72;;;19.60;99.90;;;;;;5072544;28;20098;-76
2021/06/02 08:30:21;;;;;;;17.92;9.05;;;19.70;99.90;;;;;;5076781;28;20031;-77
2021/06/02 08:32:47;;;;;;;16.55;10.77;;;19.60;99.90;;;;;;5074476;28;20017;-77
2021/06/02 08:35:18;;;;;;;19.60;8.73;;;19.70;99.90;;;;;;5076512;28;20058;-89
2021/06/02 08:37:45;;;;;;;19.75;8.82;;;19.80;99.90;;;;;;5075254;28;20056;-74
2021/06/02 08:40:12;;;;;;;17.33;8.38;;;20.00;99.90;;;;;;5071955;28;20443;-77
2021/06/02 08:42:47;;;;;;;14.32;7.53;;;20.10;99.90;;;;;;5069084;28;20107;-77
2021/06/02 08:45:14;;;;;;;21.80;7.88;;;20.30;99.90;;;;;;5074867;28;20036;-76
2021/06/02 08:47:44;;;;;;;14.27;6.88;;;20.20;99.90;;;;;;5075282;28;20108;-84
2021/06/02 08:50:13;;;;;;;14.93;7.28;;;20.10;99.90;;;;;;5074796;28;20377;-77
2021/06/02 08:52:41;;;;;;;17.58;7.88;;;20.20;99.90;;;;;;5076107;28;20516;-77
2021/06/02 08:55:10;;;;;;;13.38;6.90;;;20.00;99.90;;;;;;5073624;28;20079;-77
2021/06/02 08:57:44;;;;;;;14.73;7.47;;;20.10;99.90;;;;;;5077245;28;20504;-77
2021/06/02 09:00:12;;;;;;;13.07;7.82;;;20.10;99.90;;;;;;5075207;28;20027;-77
2021/06/02 09:02:39;;;;;;;16.80;7.72;;;20.30;99.90;;;;;;5077635;28;20024;-77
2021/06/02 09:05:07;;;;;;;14.77;7.70;;;20.40;99.40;;;;;;5074549;28;20035;-77
2021/06/02 09:07:36;;;;;;;18.23;9.23;;;20.60;99.00;;;;;;5078544;28;20492;-77
2021/06/02 09:10:03;;;;;;;15.95;8.98;;;20.50;99.00;;;;;;5070613;28;20574;-76
2021/06/02 09:12:37;;;;;;;16.00;8.63;;;20.30;99.40;;;;;;5075770;28;20034;-77
2021/06/02 09:15:15;;;;;;;17.38;8.65;;;20.20;99.70;;;;;;5070621;28;20070;-77
2021/06/02 09:18:00;;;;;;;20.20;10.50;;;20.10;99.90;;;;;;5069931;28;20052;-76
2021/06/02 09:20:50;;;;;;;17.38;9.65;;;19.90;99.90;;;;;;5071548;28;20048;-74
2021/06/02 09:23:34;;;;;;;15.60;9.13;;;19.80;99.90;;;;;;5070039;28;20044;-77
2021/06/02 09:26:15;;;;;;;15.10;9.20;;;20.10;99.90;;;;;;5080644;28;20043;-78
2021/06/02 09:28:58;;;;;;;20.88;10.10;;;20.20;99.90;;;;;;5070308;28;20017;-78
2021/06/02 09:31:36;;;;;;;16.95;8.95;;;20.00;99.90;;;;;;5079231;28;20033;-78
2021/06/02 09:34:14;;;;;;;17.48;8.23;;;20.00;99.90;;;;;;5067933;28;20024;-77
2021/06/02 09:36:41;;;;;;;16.05;7.43;;;20.00;99.90;;;;;;5077850;28;20028;-78
2021/06/02 09:39:10;;;;;;;18.10;7.80;;;20.00;99.90;;;;;;5069748;28;20029;-78
2021/06/02 09:41:47;;;;;;;14.68;7.85;;;20.30;99.70;;;;;;5078073;28;20085;-78
2021/06/02 09:44:15;;;;;;;11.95;7.50;;;20.60;98.90;;;;;;5069807;28;20040;-78
2021/06/02 09:47:02;;;;;;;16.13;7.30;;;20.70;98.10;;;;;;5076863;28;20060;-78
2021/06/02 09:49:29;;;;;;;15.80;7.43;;;20.70;98.10;;;;;;5070476;28;20027;-78
2021/06/02 09:51:55;;;;;;;17.95;8.60;;;20.70;98.00;;;;;;5073444;28;20025;-78
2021/06/02 09:54:23;;;;;;;10.68;7.18;;;20.60;98.60;;;;;;5069743;28;20024;-78
2021/06/02 09:56:49;;;;;;;14.32;7.53;;;20.70;98.90;;;;;;5079077;28;20028;-78
2021/06/02 09:59:16;;;;;;;18.35;7.43;;;20.90;98.40;;;;;;5069223;28;20119;-79
2021/06/02 10:01:58;;;;;;;14.88;7.80;;;21.00;97.60;;;;;;5078798;28;20020;-78
2021/06/02 10:04:29;;;;;;;21.20;9.68;;;21.20;98.00;;;;;;5067270;28;20031;-79
2021/06/02 10:06:54;;;;;;;19.90;9.85;;;21.20;97.70;;;;;;5073847;28;20542;-78
2021/06/02 10:09:35;;;;;;;19.73;11.00;;;21.10;98.30;;;;;;5069412;28;20024;-78
2021/06/02 10:12:08;;;;;;;19.95;9.93;;;20.80;99.00;;;;;;5074700;28;20028;-77
2021/06/02 10:14:36;;;;;;;21.13;8.02;;;20.80;99.10;;;;;;5072267;28;20040;-77
2021/06/02 10:17:02;;;;;;;18.15;9.23;;;20.90;98.00;;;;;;5076046;28;20051;-77
2021/06/02 10:19:40;;;;;;;17.63;9.50;;;20.60;98.20;;;;;;5068739;28;20027;-77
2021/06/02 10:22:24;;;;;;;18.90;8.43;;;20.40;99.10;;;;;;5073315;28;20326;-78
2021/06/02 10:24:52;;;;;;;16.70;7.97;;;20.60;99.00;;;;;;5072767;28;20095;-78
2021/06/02 10:27:19;;;;;;;14.88;7.25;;;20.80;98.00;;;;;;5071689;28;20103;-78
2021/06/02 10:29:46;;;;;;;15.75;6.85;;;20.70;97.50;;;;;;5074222;28;20028;-77
2021/06/02 10:32:13;;;;;;;15.70;7.18;;;20.90;97.00;;;;;;5074437;28;20017;-77
2021/06/02 10:34:39;;;;;;;11.90;6.07;;;20.80;97.40;;;;;;5074966;28;20036;-77
2021/06/02 10:37:05;;;;;;;14.93;7.10;;;20.80;96.90;;;;;;5075000;28;20028;-77
2021/06/02 10:39:33;;;;;;;17.38;7.25;;;21.00;96.60;;;;;;5071106;28;20089;-77
2021/06/02 10:42:05;;;;;;;17.58;6.72;;;21.10;96.00;;;;;;5072000;28;20029;-77
2021/06/02 10:44:37;;;;;;;13.60;6.55;;;21.00;96.50;;;;;;5072313;28;20020;-77
2021/06/02 10:47:04;;;;;;;18.13;6.72;;;21.00;96.80;;;;;;5083037;28;20012;-77
2021/06/02 10:49:36;;;;;;;15.25;6.28;;;21.30;95.60;;;;;;5072479;28;20029;-77
2021/06/02 10:52:05;;;;;;;18.45;7.28;;;21.10;95.60;;;;;;5070276;28;20032;-77
2021/06/02 10:54:38;;;;;;;11.73;6.53;;;21.00;96.20;;;;;;5073051;28;20017;-78
2021/06/02 10:57:16;;;;;;;12.98;6.28;;;20.90;96.00;;;;;;5074194;28;20055;-77
2021/06/02 10:59:43;;;;;;;12.02;5.97;;;21.10;96.10;;;;;;5074864;28;20036;-77
2021/06/02 11:02:14;;;;;;;15.98;7.10;;;21.40;95.30;;;;;;5074577;28;20017;-77
2021/06/02 11:05:12;;;;;;;15.32;7.68;;;21.50;95.50;;;;;;5074418;28;20040;-77
2021/06/02 11:07:51;;;;;;;14.15;6.28;;;21.30;95.80;;;;;;5074336;28;20036;-78
2021/06/02 11:10:17;;;;;;;14.07;6.00;;;20.90;96.60;;;;;;5072126;28;20591;-78
2021/06/02 11:12:55;;;;;;;12.60;6.57;;;21.20;96.20;;;;;;5076041;28;20271;-78
2021/06/02 11:15:35;;;;;;;15.43;6.78;;;21.30;96.20;;;;;;5076535;28;20032;-79
2021/06/02 11:18:10;;;;;;;13.20;6.10;;;21.50;95.80;;;;;;5076756;28;20044;-78
2021/06/02 11:20:46;;;;;;;16.70;8.52;;;21.70;95.40;;;;;;5060431;28;20041;-78
2021/06/02 11:23:15;;;;;;;11.75;6.13;;;21.60;95.80;;;;;;5072101;28;20060;-78
2021/06/02 11:25:42;;;;;;;13.52;5.93;;;21.40;95.90;;;;;;5075268;28;20504;-77
2021/06/02 11:28:12;;;;;;;13.88;6.07;;;21.60;95.80;;;;;;5074657;28;20111;-78
2021/06/02 11:30:38;;;;;;;13.02;6.63;;;21.70;95.70;;;;;;5077219;28;20089;-77
2021/06/02 11:33:09;;;;;;;11.73;5.72;;;21.70;95.40;;;;;;5064036;28;20024;-77
2021/06/02 11:35:54;;;;;;;13.55;6.70;;;21.80;95.30;;;;;;5076227;28;20012;-77
2021/06/02 11:38:20;;;;;;;;;;;21.60;94.80;;;;;;5076810;28;20115;-77
2021/06/02 11:40:46;;;;;;;13.75;6.28;;;21.40;95.30;;;;;;5074844;28;19919;-77
2021/06/02 11:43:11;;;;;;;14.63;7.22;;;21.10;95.90;;;;;;5069862;28;20095;-77
2021/06/02 11:45:42;;;;;;;19.95;7.90;;;21.30;95.80;;;;;;5072288;28;20089;-76
2021/06/02 11:48:12;;;;;;;13.93;7.10;;;21.20;96.20;;;;;;5068081;28;20017;-76
2021/06/02 11:50:38;;;;;;;14.55;7.53;;;21.20;95.90;;;;;;5070874;28;20116;-77
2021/06/02 11:53:04;;;;;;;12.23;6.30;;;21.20;96.00;;;;;;5066972;28;20028;-76
2021/06/02 11:55:34;;;;;;;15.43;6.15;;;21.30;95.70;;;;;;5070503;28;20021;-77
2021/06/02 11:58:00;;;;;;;12.57;6.70;;;21.30;95.30;;;;;;5071974;28;20223;-77
2021/06/02 12:00:32;;;;;;;16.70;6.80;;;21.40;95.70;;;;;;5071244;28;20108;-77
2021/06/02 12:03:03;;;;;;;17.30;6.70;;;21.80;94.90;;;;;;5069600;28;20107;-77
2021/06/02 12:05:40;;;;;;;13.38;7.03;;;21.80;94.70;;;;;;5076186;28;20024;-77
2021/06/02 12:08:13;;;;;;;14.65;7.07;;;21.70;95.10;;;;;;5066705;28;20089;-76
2021/06/02 12:10:44;;;;;;;13.93;6.75;;;21.50;95.10;;;;;;5078980;28;20032;-77
2021/06/02 12:13:23;;;;;;;17.15;5.97;;;21.60;94.90;;;;;;5072461;28;20416;-77
2021/06/02 12:16:00;;;;;;;16.33;6.82;;;21.90;94.80;;;;;;5081043;28;20051;-76
2021/06/02 12:18:48;;;;;;;13.88;6.57;;;21.90;94.30;;;;;;5069963;28;20400;-77
2021/06/02 12:21:28;;;;;;;13.02;6.20;;;22.10;94.40;;;;;;5083844;28;20281;-77
2021/06/02 12:23:57;;;;;;;14.05;6.57;;;22.60;92.60;;;;;;5069828;28;20105;-77
2021/06/02 12:26:42;;;;;;;14.65;6.18;;;22.50;92.80;;;;;;5072958;28;20037;-76
2021/06/02 12:29:13;;;;;;;15.27;6.97;;;22.20;93.80;;;;;;5070519;28;20485;-77
2021/06/02 12:31:45;;;;;;;12.00;5.35;;;22.10;93.50;;;;;;5072489;28;20056;-77
2021/06/02 12:34:11;;;;;;;19.80;5.75;;;22.50;93.50;;;;;;5070838;28;20036;-77
2021/06/02 12:36:42;;;;;;;11.85;7.00;;;23.50;92.40;;;;;;5063857;28;20020;-77
2021/06/02 12:39:10;;;;;;;18.85;6.60;;;23.40;91.20;;;;;;5070152;28;20036;-77
2021/06/02 12:41:38;;;;;;;13.60;6.53;;;22.90;92.30;;;;;;5074108;28;20056;-77
2021/06/02 12:44:04;;;;;;;13.38;6.05;;;22.90;92.10;;;;;;5068939;28;20523;-77
2021/06/02 12:46:31;;;;;;;14.65;5.82;;;23.00;92.00;;;;;;5075082;28;20009;-77
2021/06/02 12:48:57;;;;;;;15.73;5.78;;;23.10;91.40;;;;;;5069766;28;20441;-77
2021/06/02 12:51:27;;;;;;;12.15;6.03;;;23.40;91.10;;;;;;5076533;28;20057;-77
2021/06/02 12:53:53;;;;;;;13.63;5.43;;;23.20;91.60;;;;;;5069916;28;20023;-78
2021/06/02 12:56:21;;;;;;;9.48;4.40;;;23.80;91.00;;;;;;5077337;28;20035;-77
2021/06/02 12:59:00;;;;;;;15.02;6.30;;;24.40;87.60;;;;;;5069643;28;20068;-78
2021/06/02 13:01:33;;;;;;;15.40;5.05;;;24.60;86.40;;;;;;5074162;28;20027;-77
2021/06/02 13:04:01;;;;;;;14.93;4.88;;;24.80;85.50;;;;;;5069212;28;20029;-78
2021/06/02 13:06:32;;;;;;;13.85;5.00;;;24.70;85.50;;;;;;5078320;28;20013;-78
2021/06/02 13:09:06;;;;;;;11.93;5.82;;;24.40;86.40;;;;;;5069330;28;20036;-77
2021/06/02 13:11:33;;;;;;;16.88;5.55;;;23.80;88.90;;;;;;5078812;28;20033;-78
2021/06/02 13:14:01;;;;;;;16.23;6.25;;;23.70;89.50;;;;;;5069290;28;20145;-77
2021/06/02 13:16:28;;;;;;;16.25;5.60;;;23.40;90.30;;;;;;5070766;28;20032;-78
2021/06/02 13:19:05;;;;;;;16.38;5.95;;;23.20;90.40;;;;;;5069199;28;20031;-77